sensor_id;sensor_type;location;lat;lon;timestamp;P1;durP1;ratioP1;P2;durP2;ratioP2
64609;SDS011;51019;46.090;6.350;2024-01-30T00:02:21;22.60;;;9.25;;
64609;SDS011;51019;46.090;6.350;2024-01-30T00:04:49;29.50;;;10.38;;
64609;SDS011;51019;46.090;6.350;2024-01-30T00:07:16;21.05;;;8.85;;
64609;SDS011;51019;46.090;6.350;2024-01-30T00:09:46;21.63;;;9.02;;
64609;SDS011;51019;46.090;6.350;2024-01-30T00:12:13;26.05;;;10.68;;
64609;SDS011;51019;46.090;6.350;2024-01-30T00:14:41;18.85;;;9.43;;
64609;SDS011;51019;46.090;6.350;2024-01-30T00:17:08;22.10;;;8.52;;
64609;SDS011;51019;46.090;6.350;2024-01-30T00:19:37;22.10;;;8.73;;
64609;SDS011;51019;46.090;6.350;2024-01-30T00:22:04;20.58;;;8.63;;
64609;SDS011;51019;46.090;6.350;2024-01-30T00:24:31;20.35;;;8.48;;
64609;SDS011;51019;46.090;6.350;2024-01-30T00:26:58;19.60;;;9.20;;
64609;SDS011;51019;46.090;6.350;2024-01-30T00:29:25;25.38;;;8.95;;
64609;SDS011;51019;46.090;6.350;2024-01-30T00:31:55;21.15;;;8.07;;
64609;SDS011;51019;46.090;6.350;2024-01-30T00:34:22;23.73;;;7.82;;
64609;SDS011;51019;46.090;6.350;2024-01-30T00:36:51;19.80;;;8.32;;
64609;SDS011;51019;46.090;6.350;2024-01-30T00:39:18;25.70;;;8.65;;
64609;SDS011;51019;46.090;6.350;2024-01-30T00:41:44;21.42;;;7.50;;
64609;SDS011;51019;46.090;6.350;2024-01-30T00:44:11;23.23;;;8.57;;
64609;SDS011;51019;46.090;6.350;2024-01-30T00:46:38;19.88;;;8.68;;
64609;SDS011;51019;46.090;6.350;2024-01-30T00:49:05;19.13;;;8.43;;
64609;SDS011;51019;46.090;6.350;2024-01-30T00:51:32;23.23;;;9.75;;
64609;SDS011;51019;46.090;6.350;2024-01-30T00:54:01;27.52;;;10.52;;
64609;SDS011;51019;46.090;6.350;2024-01-30T00:56:29;28.65;;;11.48;;
64609;SDS011;51019;46.090;6.350;2024-01-30T00:58:56;26.45;;;9.38;;
64609;SDS011;51019;46.090;6.350;2024-01-30T01:01:23;21.55;;;9.65;;
64609;SDS011;51019;46.090;6.350;2024-01-30T01:03:50;23.05;;;10.40;;
64609;SDS011;51019;46.090;6.350;2024-01-30T01:06:17;21.95;;;10.23;;
64609;SDS011;51019;46.090;6.350;2024-01-30T01:08:44;29.08;;;10.95;;
64609;SDS011;51019;46.090;6.350;2024-01-30T01:11:13;22.08;;;8.50;;
64609;SDS011;51019;46.090;6.350;2024-01-30T01:13:39;21.38;;;8.68;;
64609;SDS011;51019;46.090;6.350;2024-01-30T01:16:07;22.23;;;9.65;;
64609;SDS011;51019;46.090;6.350;2024-01-30T01:18:34;24.13;;;10.10;;
64609;SDS011;51019;46.090;6.350;2024-01-30T01:21:01;24.75;;;9.10;;
64609;SDS011;51019;46.090;6.350;2024-01-30T01:23:29;24.70;;;9.20;;
64609;SDS011;51019;46.090;6.350;2024-01-30T01:25:58;20.65;;;7.75;;
64609;SDS011;51019;46.090;6.350;2024-01-30T01:28:28;20.33;;;8.73;;
64609;SDS011;51019;46.090;6.350;2024-01-30T01:30:55;19.15;;;8.32;;
64609;SDS011;51019;46.090;6.350;2024-01-30T01:33:26;21.73;;;9.27;;
64609;SDS011;51019;46.090;6.350;2024-01-30T01:35:53;21.10;;;9.38;;
64609;SDS011;51019;46.090;6.350;2024-01-30T01:38:20;23.50;;;10.02;;
64609;SDS011;51019;46.090;6.350;2024-01-30T01:40:47;23.55;;;9.52;;
64609;SDS011;51019;46.090;6.350;2024-01-30T01:43:16;23.95;;;8.02;;
64609;SDS011;51019;46.090;6.350;2024-01-30T01:45:45;21.67;;;9.25;;
64609;SDS011;51019;46.090;6.350;2024-01-30T01:48:12;24.48;;;8.48;;
64609;SDS011;51019;46.090;6.350;2024-01-30T01:50:41;19.83;;;8.25;;
64609;SDS011;51019;46.090;6.350;2024-01-30T01:53:09;24.95;;;9.00;;
64609;SDS011;51019;46.090;6.350;2024-01-30T01:55:37;19.75;;;7.57;;
64609;SDS011;51019;46.090;6.350;2024-01-30T01:58:04;22.52;;;8.27;;
64609;SDS011;51019;46.090;6.350;2024-01-30T02:00:31;20.95;;;8.73;;
64609;SDS011;51019;46.090;6.350;2024-01-30T02:03:01;23.42;;;9.05;;
64609;SDS011;51019;46.090;6.350;2024-01-30T02:05:30;20.10;;;7.32;;
64609;SDS011;51019;46.090;6.350;2024-01-30T02:07:58;21.88;;;8.93;;
64609;SDS011;51019;46.090;6.350;2024-01-30T02:10:25;22.23;;;7.75;;
64609;SDS011;51019;46.090;6.350;2024-01-30T02:12:52;19.38;;;7.65;;
64609;SDS011;51019;46.090;6.350;2024-01-30T02:15:19;22.02;;;8.68;;
64609;SDS011;51019;46.090;6.350;2024-01-30T02:17:46;18.58;;;6.82;;
64609;SDS011;51019;46.090;6.350;2024-01-30T02:20:15;20.95;;;8.13;;
64609;SDS011;51019;46.090;6.350;2024-01-30T02:22:44;21.73;;;8.43;;
64609;SDS011;51019;46.090;6.350;2024-01-30T02:25:13;21.75;;;9.00;;
64609;SDS011;51019;46.090;6.350;2024-01-30T02:27:40;21.10;;;8.05;;
64609;SDS011;51019;46.090;6.350;2024-01-30T02:30:07;21.05;;;8.70;;
64609;SDS011;51019;46.090;6.350;2024-01-30T02:32:35;22.77;;;8.38;;
64609;SDS011;51019;46.090;6.350;2024-01-30T02:35:02;20.55;;;7.43;;
64609;SDS011;51019;46.090;6.350;2024-01-30T02:37:29;17.83;;;6.75;;
64609;SDS011;51019;46.090;6.350;2024-01-30T02:39:58;18.73;;;7.28;;
64609;SDS011;51019;46.090;6.350;2024-01-30T02:42:25;20.00;;;8.77;;
64609;SDS011;51019;46.090;6.350;2024-01-30T02:44:52;18.35;;;8.45;;
64609;SDS011;51019;46.090;6.350;2024-01-30T02:47:19;17.67;;;6.70;;
64609;SDS011;51019;46.090;6.350;2024-01-30T02:49:46;19.23;;;8.02;;
64609;SDS011;51019;46.090;6.350;2024-01-30T02:52:13;25.63;;;7.93;;
64609;SDS011;51019;46.090;6.350;2024-01-30T02:54:40;27.50;;;8.63;;
64609;SDS011;51019;46.090;6.350;2024-01-30T02:57:09;26.35;;;8.75;;
64609;SDS011;51019;46.090;6.350;2024-01-30T02:59:36;23.95;;;9.57;;
64609;SDS011;51019;46.090;6.350;2024-01-30T03:02:04;20.83;;;8.65;;
64609;SDS011;51019;46.090;6.350;2024-01-30T03:04:31;26.45;;;8.68;;
64609;SDS011;51019;46.090;6.350;2024-01-30T03:06:58;22.35;;;9.63;;
64609;SDS011;51019;46.090;6.350;2024-01-30T03:09:25;23.33;;;7.80;;
64609;SDS011;51019;46.090;6.350;2024-01-30T03:11:52;23.58;;;8.90;;
64609;SDS011;51019;46.090;6.350;2024-01-30T03:14:21;24.65;;;8.63;;
64609;SDS011;51019;46.090;6.350;2024-01-30T03:16:48;25.58;;;8.80;;
64609;SDS011;51019;46.090;6.350;2024-01-30T03:19:15;21.38;;;8.90;;
64609;SDS011;51019;46.090;6.350;2024-01-30T03:21:42;21.27;;;8.40;;
64609;SDS011;51019;46.090;6.350;2024-01-30T03:24:09;20.85;;;7.93;;
64609;SDS011;51019;46.090;6.350;2024-01-30T03:26:36;21.23;;;8.90;;
64609;SDS011;51019;46.090;6.350;2024-01-30T03:29:03;19.92;;;8.00;;
64609;SDS011;51019;46.090;6.350;2024-01-30T03:31:32;22.63;;;8.60;;
64609;SDS011;51019;46.090;6.350;2024-01-30T03:33:59;23.63;;;8.48;;
64609;SDS011;51019;46.090;6.350;2024-01-30T03:36:26;21.90;;;7.63;;
64609;SDS011;51019;46.090;6.350;2024-01-30T03:38:54;19.25;;;8.13;;
64609;SDS011;51019;46.090;6.350;2024-01-30T03:41:21;24.10;;;7.32;;
64609;SDS011;51019;46.090;6.350;2024-01-30T03:43:48;17.85;;;7.22;;
64609;SDS011;51019;46.090;6.350;2024-01-30T03:46:15;18.75;;;7.50;;
64609;SDS011;51019;46.090;6.350;2024-01-30T03:48:44;16.17;;;6.22;;
64609;SDS011;51019;46.090;6.350;2024-01-30T03:51:11;20.27;;;7.95;;
64609;SDS011;51019;46.090;6.350;2024-01-30T03:53:40;20.92;;;7.03;;
64609;SDS011;51019;46.090;6.350;2024-01-30T03:56:07;18.33;;;6.70;;
64609;SDS011;51019;46.090;6.350;2024-01-30T03:58:35;17.90;;;6.20;;
64609;SDS011;51019;46.090;6.350;2024-01-30T04:01:02;18.98;;;7.18;;
64609;SDS011;51019;46.090;6.350;2024-01-30T04:03:29;18.70;;;7.03;;
64609;SDS011;51019;46.090;6.350;2024-01-30T04:05:58;18.67;;;6.28;;
64609;SDS011;51019;46.090;6.350;2024-01-30T04:08:25;18.27;;;7.22;;
64609;SDS011;51019;46.090;6.350;2024-01-30T04:10:52;19.15;;;7.70;;
64609;SDS011;51019;46.090;6.350;2024-01-30T04:13:19;24.13;;;9.23;;
64609;SDS011;51019;46.090;6.350;2024-01-30T04:15:46;27.98;;;9.65;;
64609;SDS011;51019;46.090;6.350;2024-01-30T04:18:16;24.27;;;9.00;;
64609;SDS011;51019;46.090;6.350;2024-01-30T04:20:43;26.17;;;10.13;;
64609;SDS011;51019;46.090;6.350;2024-01-30T04:23:13;23.77;;;8.65;;
64609;SDS011;51019;46.090;6.350;2024-01-30T04:25:41;23.55;;;7.65;;
64609;SDS011;51019;46.090;6.350;2024-01-30T04:28:08;21.35;;;8.57;;
64609;SDS011;51019;46.090;6.350;2024-01-30T04:30:37;19.05;;;7.75;;
64609;SDS011;51019;46.090;6.350;2024-01-30T04:33:04;19.48;;;7.50;;
64609;SDS011;51019;46.090;6.350;2024-01-30T04:35:31;21.67;;;8.82;;
64609;SDS011;51019;46.090;6.350;2024-01-30T04:37:58;24.35;;;8.77;;
64609;SDS011;51019;46.090;6.350;2024-01-30T04:40:27;21.05;;;8.63;;
64609;SDS011;51019;46.090;6.350;2024-01-30T04:42:55;21.17;;;8.77;;
64609;SDS011;51019;46.090;6.350;2024-01-30T04:45:22;24.52;;;8.57;;
64609;SDS011;51019;46.090;6.350;2024-01-30T04:47:49;22.23;;;8.90;;
64609;SDS011;51019;46.090;6.350;2024-01-30T04:50:16;22.67;;;7.93;;
64609;SDS011;51019;46.090;6.350;2024-01-30T04:52:43;18.52;;;7.53;;
64609;SDS011;51019;46.090;6.350;2024-01-30T04:55:10;23.33;;;7.95;;
64609;SDS011;51019;46.090;6.350;2024-01-30T04:57:39;18.60;;;7.55;;
64609;SDS011;51019;46.090;6.350;2024-01-30T05:00:07;19.58;;;7.10;;
64609;SDS011;51019;46.090;6.350;2024-01-30T05:02:35;19.75;;;8.32;;
64609;SDS011;51019;46.090;6.350;2024-01-30T05:05:02;16.40;;;6.68;;
64609;SDS011;51019;46.090;6.350;2024-01-30T05:07:29;20.92;;;7.82;;
64609;SDS011;51019;46.090;6.350;2024-01-30T05:09:56;22.30;;;8.75;;
64609;SDS011;51019;46.090;6.350;2024-01-30T05:12:23;20.20;;;8.10;;
64609;SDS011;51019;46.090;6.350;2024-01-30T05:14:52;18.48;;;8.13;;
64609;SDS011;51019;46.090;6.350;2024-01-30T05:17:19;21.88;;;8.38;;
64609;SDS011;51019;46.090;6.350;2024-01-30T05:19:46;23.33;;;8.13;;
64609;SDS011;51019;46.090;6.350;2024-01-30T05:22:13;18.20;;;6.82;;
64609;SDS011;51019;46.090;6.350;2024-01-30T05:24:43;16.75;;;7.47;;
64609;SDS011;51019;46.090;6.350;2024-01-30T05:27:10;18.95;;;6.60;;
64609;SDS011;51019;46.090;6.350;2024-01-30T05:29:38;18.23;;;6.35;;
64609;SDS011;51019;46.090;6.350;2024-01-30T05:32:07;20.63;;;7.20;;
64609;SDS011;51019;46.090;6.350;2024-01-30T05:34:35;18.33;;;6.93;;
64609;SDS011;51019;46.090;6.350;2024-01-30T05:37:02;17.33;;;6.55;;
64609;SDS011;51019;46.090;6.350;2024-01-30T05:39:30;17.85;;;6.43;;
64609;SDS011;51019;46.090;6.350;2024-01-30T05:41:58;18.70;;;6.25;;
64609;SDS011;51019;46.090;6.350;2024-01-30T05:44:25;29.17;;;7.88;;
64609;SDS011;51019;46.090;6.350;2024-01-30T05:46:52;18.42;;;6.43;;
64609;SDS011;51019;46.090;6.350;2024-01-30T05:49:21;22.02;;;6.78;;
64609;SDS011;51019;46.090;6.350;2024-01-30T05:52:02;24.77;;;8.00;;
64609;SDS011;51019;46.090;6.350;2024-01-30T05:54:32;28.77;;;8.88;;
64609;SDS011;51019;46.090;6.350;2024-01-30T05:57:00;27.30;;;9.13;;
64609;SDS011;51019;46.090;6.350;2024-01-30T05:59:27;26.95;;;10.50;;
64609;SDS011;51019;46.090;6.350;2024-01-30T06:01:53;27.88;;;10.63;;
64609;SDS011;51019;46.090;6.350;2024-01-30T06:04:25;29.58;;;10.07;;
64609;SDS011;51019;46.090;6.350;2024-01-30T06:06:52;30.53;;;11.63;;
64609;SDS011;51019;46.090;6.350;2024-01-30T06:09:20;29.92;;;10.38;;
64609;SDS011;51019;46.090;6.350;2024-01-30T06:11:47;25.52;;;9.90;;
64609;SDS011;51019;46.090;6.350;2024-01-30T06:14:14;30.55;;;12.55;;
64609;SDS011;51019;46.090;6.350;2024-01-30T06:16:41;28.05;;;11.00;;
64609;SDS011;51019;46.090;6.350;2024-01-30T06:19:11;28.45;;;11.90;;
64609;SDS011;51019;46.090;6.350;2024-01-30T06:21:40;34.15;;;12.43;;
64609;SDS011;51019;46.090;6.350;2024-01-30T06:24:08;24.88;;;9.27;;
64609;SDS011;51019;46.090;6.350;2024-01-30T06:26:35;26.27;;;10.07;;
64609;SDS011;51019;46.090;6.350;2024-01-30T06:29:02;26.98;;;9.95;;
64609;SDS011;51019;46.090;6.350;2024-01-30T06:31:30;19.05;;;8.07;;
64609;SDS011;51019;46.090;6.350;2024-01-30T06:33:56;22.65;;;8.50;;
64609;SDS011;51019;46.090;6.350;2024-01-30T06:36:24;22.88;;;9.00;;
64609;SDS011;51019;46.090;6.350;2024-01-30T06:38:52;24.63;;;8.20;;
64609;SDS011;51019;46.090;6.350;2024-01-30T06:41:22;26.25;;;9.68;;
64609;SDS011;51019;46.090;6.350;2024-01-30T06:43:49;25.33;;;9.02;;
64609;SDS011;51019;46.090;6.350;2024-01-30T06:46:17;24.90;;;9.73;;
64609;SDS011;51019;46.090;6.350;2024-01-30T06:48:44;25.42;;;9.43;;
64609;SDS011;51019;46.090;6.350;2024-01-30T06:51:12;20.35;;;8.30;;
64609;SDS011;51019;46.090;6.350;2024-01-30T06:53:39;19.50;;;6.90;;
64609;SDS011;51019;46.090;6.350;2024-01-30T06:56:07;15.85;;;5.45;;
64609;SDS011;51019;46.090;6.350;2024-01-30T06:58:36;16.13;;;6.22;;
64609;SDS011;51019;46.090;6.350;2024-01-30T07:01:03;18.05;;;6.18;;
64609;SDS011;51019;46.090;6.350;2024-01-30T07:03:30;17.38;;;5.55;;
64609;SDS011;51019;46.090;6.350;2024-01-30T07:05:58;18.70;;;6.70;;
64609;SDS011;51019;46.090;6.350;2024-01-30T07:08:25;20.58;;;7.43;;
64609;SDS011;51019;46.090;6.350;2024-01-30T07:10:52;21.58;;;7.90;;
64609;SDS011;51019;46.090;6.350;2024-01-30T07:13:23;23.02;;;8.27;;
64609;SDS011;51019;46.090;6.350;2024-01-30T07:15:50;23.38;;;7.75;;
64609;SDS011;51019;46.090;6.350;2024-01-30T07:18:17;20.63;;;6.90;;
64609;SDS011;51019;46.090;6.350;2024-01-30T07:20:44;27.67;;;7.80;;
64609;SDS011;51019;46.090;6.350;2024-01-30T07:23:12;20.92;;;7.45;;
64609;SDS011;51019;46.090;6.350;2024-01-30T07:25:41;20.90;;;8.18;;
64609;SDS011;51019;46.090;6.350;2024-01-30T07:28:09;23.23;;;6.45;;
64609;SDS011;51019;46.090;6.350;2024-01-30T07:30:38;22.27;;;6.97;;
64609;SDS011;51019;46.090;6.350;2024-01-30T07:33:05;19.85;;;8.23;;
64609;SDS011;51019;46.090;6.350;2024-01-30T07:35:33;19.02;;;7.03;;
64609;SDS011;51019;46.090;6.350;2024-01-30T07:38:00;22.33;;;8.52;;
64609;SDS011;51019;46.090;6.350;2024-01-30T07:40:27;22.88;;;8.50;;
64609;SDS011;51019;46.090;6.350;2024-01-30T07:42:55;21.00;;;7.25;;
64609;SDS011;51019;46.090;6.350;2024-01-30T07:45:22;21.85;;;8.50;;
64609;SDS011;51019;46.090;6.350;2024-01-30T07:47:51;20.67;;;8.98;;
64609;SDS011;51019;46.090;6.350;2024-01-30T07:50:18;17.42;;;7.18;;
64609;SDS011;51019;46.090;6.350;2024-01-30T07:52:45;17.85;;;7.05;;
64609;SDS011;51019;46.090;6.350;2024-01-30T07:55:16;19.02;;;8.23;;
64609;SDS011;51019;46.090;6.350;2024-01-30T07:57:44;22.70;;;8.68;;
64609;SDS011;51019;46.090;6.350;2024-01-30T08:00:13;16.77;;;7.43;;
64609;SDS011;51019;46.090;6.350;2024-01-30T08:02:41;16.38;;;6.75;;
64609;SDS011;51019;46.090;6.350;2024-01-30T08:05:10;19.42;;;8.13;;
64609;SDS011;51019;46.090;6.350;2024-01-30T08:07:37;35.00;;;13.73;;
64609;SDS011;51019;46.090;6.350;2024-01-30T08:10:04;21.90;;;7.28;;
64609;SDS011;51019;46.090;6.350;2024-01-30T08:12:38;19.45;;;8.30;;
64609;SDS011;51019;46.090;6.350;2024-01-30T08:15:06;23.30;;;7.43;;
64609;SDS011;51019;46.090;6.350;2024-01-30T08:17:33;21.83;;;7.95;;
64609;SDS011;51019;46.090;6.350;2024-01-30T08:20:00;23.42;;;10.55;;
64609;SDS011;51019;46.090;6.350;2024-01-30T08:22:31;21.05;;;9.73;;
64609;SDS011;51019;46.090;6.350;2024-01-30T08:24:58;24.85;;;8.63;;
64609;SDS011;51019;46.090;6.350;2024-01-30T08:27:25;26.02;;;9.10;;
64609;SDS011;51019;46.090;6.350;2024-01-30T08:29:52;22.38;;;9.20;;
64609;SDS011;51019;46.090;6.350;2024-01-30T08:32:20;24.40;;;8.70;;
64609;SDS011;51019;46.090;6.350;2024-01-30T08:34:47;31.77;;;9.27;;
64609;SDS011;51019;46.090;6.350;2024-01-30T08:37:14;26.65;;;10.20;;
64609;SDS011;51019;46.090;6.350;2024-01-30T08:39:44;30.10;;;9.73;;
64609;SDS011;51019;46.090;6.350;2024-01-30T08:42:12;24.23;;;9.30;;
64609;SDS011;51019;46.090;6.350;2024-01-30T08:44:39;19.80;;;8.82;;
64609;SDS011;51019;46.090;6.350;2024-01-30T08:47:06;20.38;;;8.00;;
64609;SDS011;51019;46.090;6.350;2024-01-30T08:49:33;31.05;;;8.80;;
64609;SDS011;51019;46.090;6.350;2024-01-30T08:52:00;31.63;;;9.80;;
64609;SDS011;51019;46.090;6.350;2024-01-30T08:54:28;41.63;;;9.38;;
64609;SDS011;51019;46.090;6.350;2024-01-30T08:56:57;25.33;;;8.63;;
64609;SDS011;51019;46.090;6.350;2024-01-30T08:59:24;32.25;;;9.32;;
64609;SDS011;51019;46.090;6.350;2024-01-30T09:01:52;24.90;;;10.55;;
64609;SDS011;51019;46.090;6.350;2024-01-30T09:04:20;26.98;;;8.63;;
64609;SDS011;51019;46.090;6.350;2024-01-30T09:06:47;26.65;;;9.10;;
64609;SDS011;51019;46.090;6.350;2024-01-30T09:09:16;28.52;;;10.20;;
64609;SDS011;51019;46.090;6.350;2024-01-30T09:11:43;26.70;;;10.45;;
64609;SDS011;51019;46.090;6.350;2024-01-30T09:14:12;22.42;;;8.63;;
64609;SDS011;51019;46.090;6.350;2024-01-30T09:16:39;25.27;;;10.13;;
64609;SDS011;51019;46.090;6.350;2024-01-30T09:19:06;26.67;;;10.55;;
64609;SDS011;51019;46.090;6.350;2024-01-30T09:21:33;25.10;;;11.10;;
64609;SDS011;51019;46.090;6.350;2024-01-30T09:24:03;24.30;;;10.90;;
64609;SDS011;51019;46.090;6.350;2024-01-30T09:26:34;27.27;;;10.38;;
64609;SDS011;51019;46.090;6.350;2024-01-30T09:29:01;29.08;;;15.52;;
64609;SDS011;51019;46.090;6.350;2024-01-30T09:31:30;60.55;;;21.90;;
64609;SDS011;51019;46.090;6.350;2024-01-30T09:33:57;48.92;;;20.40;;
64609;SDS011;51019;46.090;6.350;2024-01-30T09:36:25;63.35;;;32.53;;
64609;SDS011;51019;46.090;6.350;2024-01-30T09:38:52;56.15;;;32.13;;
64609;SDS011;51019;46.090;6.350;2024-01-30T09:41:21;32.92;;;18.45;;
64609;SDS011;51019;46.090;6.350;2024-01-30T09:43:51;35.53;;;18.05;;
64609;SDS011;51019;46.090;6.350;2024-01-30T09:46:23;35.90;;;18.48;;
64609;SDS011;51019;46.090;6.350;2024-01-30T09:48:55;31.52;;;16.75;;
64609;SDS011;51019;46.090;6.350;2024-01-30T09:51:24;29.73;;;16.08;;
64609;SDS011;51019;46.090;6.350;2024-01-30T09:53:53;32.78;;;18.48;;
64609;SDS011;51019;46.090;6.350;2024-01-30T09:56:21;31.30;;;17.05;;
64609;SDS011;51019;46.090;6.350;2024-01-30T09:58:49;34.00;;;17.17;;
64609;SDS011;51019;46.090;6.350;2024-01-30T10:01:15;29.35;;;16.40;;
64609;SDS011;51019;46.090;6.350;2024-01-30T10:03:45;33.40;;;17.08;;
64609;SDS011;51019;46.090;6.350;2024-01-30T10:06:13;31.90;;;16.70;;
64609;SDS011;51019;46.090;6.350;2024-01-30T10:08:42;23.92;;;13.40;;
64609;SDS011;51019;46.090;6.350;2024-01-30T10:11:10;25.30;;;13.23;;
64609;SDS011;51019;46.090;6.350;2024-01-30T10:13:37;23.10;;;12.85;;
64609;SDS011;51019;46.090;6.350;2024-01-30T10:16:05;22.55;;;12.80;;
64609;SDS011;51019;46.090;6.350;2024-01-30T10:18:33;25.23;;;13.07;;
64609;SDS011;51019;46.090;6.350;2024-01-30T10:20:59;21.73;;;13.20;;
64609;SDS011;51019;46.090;6.350;2024-01-30T10:23:29;24.70;;;13.75;;
64609;SDS011;51019;46.090;6.350;2024-01-30T10:25:56;22.90;;;12.13;;
64609;SDS011;51019;46.090;6.350;2024-01-30T10:28:22;22.60;;;12.15;;
64609;SDS011;51019;46.090;6.350;2024-01-30T10:30:57;22.00;;;11.13;;
64609;SDS011;51019;46.090;6.350;2024-01-30T10:33:26;22.60;;;12.25;;
64609;SDS011;51019;46.090;6.350;2024-01-30T10:35:54;24.33;;;12.45;;
64609;SDS011;51019;46.090;6.350;2024-01-30T10:38:28;20.33;;;10.80;;
64609;SDS011;51019;46.090;6.350;2024-01-30T10:40:57;25.70;;;11.85;;
64609;SDS011;51019;46.090;6.350;2024-01-30T10:43:26;22.33;;;11.45;;
64609;SDS011;51019;46.090;6.350;2024-01-30T10:45:57;18.60;;;9.90;;
64609;SDS011;51019;46.090;6.350;2024-01-30T10:48:32;19.65;;;10.45;;
64609;SDS011;51019;46.090;6.350;2024-01-30T10:51:09;21.63;;;10.40;;
64609;SDS011;51019;46.090;6.350;2024-01-30T10:53:40;22.58;;;10.93;;
64609;SDS011;51019;46.090;6.350;2024-01-30T10:56:10;20.60;;;10.35;;
64609;SDS011;51019;46.090;6.350;2024-01-30T10:58:38;22.38;;;12.23;;
64609;SDS011;51019;46.090;6.350;2024-01-30T11:01:05;23.00;;;12.32;;
64609;SDS011;51019;46.090;6.350;2024-01-30T11:03:34;21.85;;;11.48;;
64609;SDS011;51019;46.090;6.350;2024-01-30T11:06:02;21.27;;;11.13;;
64609;SDS011;51019;46.090;6.350;2024-01-30T11:08:31;23.95;;;11.77;;
64609;SDS011;51019;46.090;6.350;2024-01-30T11:11:00;22.52;;;11.80;;
64609;SDS011;51019;46.090;6.350;2024-01-30T11:13:28;23.23;;;11.82;;
64609;SDS011;51019;46.090;6.350;2024-01-30T11:15:59;26.17;;;12.82;;
64609;SDS011;51019;46.090;6.350;2024-01-30T11:18:28;26.00;;;13.73;;
64609;SDS011;51019;46.090;6.350;2024-01-30T11:20:56;25.10;;;14.23;;
64609;SDS011;51019;46.090;6.350;2024-01-30T11:23:26;26.63;;;13.45;;
64609;SDS011;51019;46.090;6.350;2024-01-30T11:25:54;28.05;;;13.45;;
64609;SDS011;51019;46.090;6.350;2024-01-30T11:28:24;23.45;;;13.15;;
64609;SDS011;51019;46.090;6.350;2024-01-30T11:31:02;25.15;;;11.77;;
64609;SDS011;51019;46.090;6.350;2024-01-30T11:33:30;20.20;;;9.55;;
64609;SDS011;51019;46.090;6.350;2024-01-30T11:35:58;20.75;;;8.40;;
64609;SDS011;51019;46.090;6.350;2024-01-30T11:38:26;20.00;;;8.77;;
64609;SDS011;51019;46.090;6.350;2024-01-30T11:40:54;18.45;;;9.10;;
64609;SDS011;51019;46.090;6.350;2024-01-30T11:43:24;20.73;;;9.52;;
64609;SDS011;51019;46.090;6.350;2024-01-30T11:45:51;18.95;;;9.02;;
64609;SDS011;51019;46.090;6.350;2024-01-30T11:48:18;20.55;;;10.18;;
64609;SDS011;51019;46.090;6.350;2024-01-30T11:50:46;25.67;;;10.23;;
64609;SDS011;51019;46.090;6.350;2024-01-30T11:53:13;23.83;;;12.05;;
64609;SDS011;51019;46.090;6.350;2024-01-30T11:55:40;25.90;;;13.57;;
64609;SDS011;51019;46.090;6.350;2024-01-30T11:58:08;29.00;;;14.35;;
64609;SDS011;51019;46.090;6.350;2024-01-30T12:00:37;22.80;;;11.93;;
64609;SDS011;51019;46.090;6.350;2024-01-30T12:03:04;21.05;;;11.45;;
64609;SDS011;51019;46.090;6.350;2024-01-30T12:05:32;21.25;;;11.30;;
64609;SDS011;51019;46.090;6.350;2024-01-30T12:07:59;22.70;;;11.88;;
64609;SDS011;51019;46.090;6.350;2024-01-30T12:10:26;22.38;;;11.63;;
64609;SDS011;51019;46.090;6.350;2024-01-30T12:12:53;22.88;;;11.38;;
64609;SDS011;51019;46.090;6.350;2024-01-30T12:15:21;19.77;;;11.25;;
64609;SDS011;51019;46.090;6.350;2024-01-30T12:17:50;22.27;;;11.60;;
64609;SDS011;51019;46.090;6.350;2024-01-30T12:20:18;19.80;;;10.95;;
64609;SDS011;51019;46.090;6.350;2024-01-30T12:22:47;20.23;;;11.38;;
64609;SDS011;51019;46.090;6.350;2024-01-30T12:25:16;19.15;;;11.10;;
64609;SDS011;51019;46.090;6.350;2024-01-30T12:27:44;21.30;;;11.93;;
64609;SDS011;51019;46.090;6.350;2024-01-30T12:30:15;20.52;;;11.77;;
64609;SDS011;51019;46.090;6.350;2024-01-30T12:32:43;24.27;;;12.57;;
64609;SDS011;51019;46.090;6.350;2024-01-30T12:35:14;29.42;;;13.18;;
64609;SDS011;51019;46.090;6.350;2024-01-30T12:37:42;25.17;;;13.38;;
64609;SDS011;51019;46.090;6.350;2024-01-30T12:40:10;22.27;;;11.30;;
64609;SDS011;51019;46.090;6.350;2024-01-30T12:42:40;24.85;;;12.63;;
64609;SDS011;51019;46.090;6.350;2024-01-30T12:45:08;26.08;;;13.00;;
64609;SDS011;51019;46.090;6.350;2024-01-30T12:47:36;24.65;;;12.93;;
64609;SDS011;51019;46.090;6.350;2024-01-30T12:50:03;25.02;;;13.65;;
64609;SDS011;51019;46.090;6.350;2024-01-30T12:52:32;25.30;;;12.65;;
64609;SDS011;51019;46.090;6.350;2024-01-30T12:54:59;22.58;;;12.75;;
64609;SDS011;51019;46.090;6.350;2024-01-30T12:57:28;23.73;;;11.05;;
64609;SDS011;51019;46.090;6.350;2024-01-30T12:59:55;22.20;;;9.32;;
64609;SDS011;51019;46.090;6.350;2024-01-30T13:02:23;26.42;;;9.80;;
64609;SDS011;51019;46.090;6.350;2024-01-30T13:04:51;18.17;;;8.55;;
64609;SDS011;51019;46.090;6.350;2024-01-30T13:07:18;18.92;;;8.23;;
64609;SDS011;51019;46.090;6.350;2024-01-30T13:09:47;15.90;;;7.57;;
64609;SDS011;51019;46.090;6.350;2024-01-30T13:12:14;17.17;;;8.80;;
64609;SDS011;51019;46.090;6.350;2024-01-30T13:14:42;17.70;;;8.10;;
64609;SDS011;51019;46.090;6.350;2024-01-30T13:17:09;16.33;;;8.07;;
64609;SDS011;51019;46.090;6.350;2024-01-30T13:19:36;15.50;;;7.40;;
64609;SDS011;51019;46.090;6.350;2024-01-30T13:22:03;15.15;;;7.40;;
64609;SDS011;51019;46.090;6.350;2024-01-30T13:24:30;18.13;;;7.80;;
64609;SDS011;51019;46.090;6.350;2024-01-30T13:27:00;20.80;;;8.65;;
64609;SDS011;51019;46.090;6.350;2024-01-30T13:29:27;18.45;;;8.23;;
64609;SDS011;51019;46.090;6.350;2024-01-30T13:31:54;16.25;;;7.82;;
64609;SDS011;51019;46.090;6.350;2024-01-30T13:34:21;16.00;;;6.82;;
64609;SDS011;51019;46.090;6.350;2024-01-30T13:36:48;16.08;;;7.20;;
64609;SDS011;51019;46.090;6.350;2024-01-30T13:39:15;17.80;;;7.90;;
64609;SDS011;51019;46.090;6.350;2024-01-30T13:41:42;18.88;;;8.32;;
64609;SDS011;51019;46.090;6.350;2024-01-30T13:44:12;18.15;;;7.63;;
64609;SDS011;51019;46.090;6.350;2024-01-30T13:46:41;16.85;;;7.85;;
64609;SDS011;51019;46.090;6.350;2024-01-30T13:49:08;16.02;;;7.57;;
64609;SDS011;51019;46.090;6.350;2024-01-30T13:51:35;17.75;;;8.30;;
64609;SDS011;51019;46.090;6.350;2024-01-30T13:54:02;18.65;;;8.35;;
64609;SDS011;51019;46.090;6.350;2024-01-30T13:56:29;19.65;;;8.70;;
64609;SDS011;51019;46.090;6.350;2024-01-30T13:58:57;18.90;;;7.35;;
64609;SDS011;51019;46.090;6.350;2024-01-30T14:01:28;17.77;;;8.65;;
64609;SDS011;51019;46.090;6.350;2024-01-30T14:03:55;18.15;;;7.63;;
64609;SDS011;51019;46.090;6.350;2024-01-30T14:06:22;17.52;;;8.48;;
64609;SDS011;51019;46.090;6.350;2024-01-30T14:08:49;16.48;;;8.02;;
64609;SDS011;51019;46.090;6.350;2024-01-30T14:11:16;18.27;;;8.90;;
64609;SDS011;51019;46.090;6.350;2024-01-30T14:13:43;18.55;;;8.00;;
64609;SDS011;51019;46.090;6.350;2024-01-30T14:16:11;18.85;;;9.25;;
64609;SDS011;51019;46.090;6.350;2024-01-30T14:18:42;16.35;;;7.93;;
64609;SDS011;51019;46.090;6.350;2024-01-30T14:21:09;19.83;;;8.20;;
64609;SDS011;51019;46.090;6.350;2024-01-30T14:23:39;17.58;;;7.57;;
64609;SDS011;51019;46.090;6.350;2024-01-30T14:26:06;16.55;;;7.85;;
64609;SDS011;51019;46.090;6.350;2024-01-30T14:28:33;15.23;;;7.63;;
64609;SDS011;51019;46.090;6.350;2024-01-30T14:31:00;17.15;;;7.97;;
64609;SDS011;51019;46.090;6.350;2024-01-30T14:33:27;16.58;;;7.90;;
64609;SDS011;51019;46.090;6.350;2024-01-30T14:35:56;16.08;;;7.82;;